Time;durP1;ratioP1;P1;durP2;ratioP2;P2;SDS_P1;SDS_P2;PMS_P1;PMS_P2;Temp;Humidity;BMP_temperature;BMP_pressure;BME280_temperature;BME280_humidity;BME280_pressure;Samples;Min_cycle;Max_cycle;Signal;HPM_P1;HPM_P2
2022/07/25 00:00:08;;;;;;;3.53;2.83;;;24.00;55.50;;;;;;5052173;28;20052;-64
2022/07/25 00:02:34;;;;;;;4.25;3.33;;;24.00;55.60;;;;;;5052205;28;20077;-67
2022/07/25 00:05:00;;;;;;;3.22;2.75;;;24.00;55.60;;;;;;5052002;28;20490;-67
2022/07/25 00:07:27;;;;;;;5.03;3.00;;;24.00;55.60;;;;;;5052119;28;20528;-63
2022/07/25 00:09:53;;;;;;;5.38;3.17;;;23.90;55.70;;;;;;5051306;28;20052;-63
2022/07/25 00:12:19;;;;;;;3.88;3.20;;;23.90;55.70;;;;;;5052341;28;20045;-64
2022/07/25 00:14:45;;;;;;;3.30;2.80;;;23.90;55.80;;;;;;5052204;28;20131;-63
2022/07/25 00:17:10;;;;;;;3.63;2.90;;;23.90;55.80;;;;;;5051879;28;20566;-63
2022/07/25 00:19:36;;;;;;;3.00;2.33;;;23.80;55.80;;;;;;5051918;28;20029;-63
2022/07/25 00:22:02;;;;;;;3.72;3.00;;;23.80;55.50;;;;;;5053096;28;20048;-64
2022/07/25 00:24:28;;;;;;;5.38;2.95;;;23.80;55.60;;;;;;5051806;28;20040;-64
2022/07/25 00:26:54;;;;;;;4.45;3.33;;;23.80;55.80;;;;;;5053027;28;20307;-64
2022/07/25 00:29:19;;;;;;;4.50;3.45;;;23.80;55.80;;;;;;5052938;28;20112;-69
2022/07/25 00:31:45;;;;;;;5.47;3.75;;;23.80;55.90;;;;;;5051641;28;20398;-64
2022/07/25 00:34:11;;;;;;;5.10;3.40;;;23.80;56.00;;;;;;5053029;28;20401;-68
2022/07/25 00:36:37;;;;;;;4.25;3.60;;;23.70;56.00;;;;;;5053144;28;20045;-68
2022/07/25 00:39:03;;;;;;;4.68;3.58;;;23.70;56.20;;;;;;5051619;28;20120;-68
2022/07/25 00:41:29;;;;;;;4.85;3.88;;;23.70;56.30;;;;;;5051543;28;20478;-67
2022/07/25 00:43:55;;;;;;;6.05;3.90;;;23.60;56.30;;;;;;5051533;28;20041;-67
2022/07/25 00:46:20;;;;;;;5.72;4.70;;;23.60;56.40;;;;;;5051839;28;20097;-67
2022/07/25 00:48:46;;;;;;;5.38;3.88;;;23.50;56.40;;;;;;5052675;28;20094;-64
2022/07/25 00:51:13;;;;;;;4.15;3.72;;;23.50;56.40;;;;;;5051708;28;20528;-63
2022/07/25 00:53:39;;;;;;;5.07;4.57;;;23.40;56.50;;;;;;5052677;28;20040;-63
2022/07/25 00:56:06;;;;;;;5.68;4.38;;;23.40;56.60;;;;;;5051517;28;20051;-66
2022/07/25 00:58:32;;;;;;;4.43;4.03;;;23.30;56.70;;;;;;5018412;28;20053;-68
2022/07/25 01:00:58;;;;;;;7.05;4.60;;;23.30;56.90;;;;;;5051584;28;20073;-63
2022/07/25 01:03:24;;;;;;;5.00;4.47;;;23.20;57.00;;;;;;5051161;28;20122;-63
2022/07/25 01:05:50;;;;;;;4.57;4.18;;;23.20;57.10;;;;;;5035011;28;20418;-63
2022/07/25 01:08:19;;;;;;;5.53;4.45;;;23.10;57.10;;;;;;5051553;28;20490;-66
2022/07/25 01:10:46;;;;;;;5.90;5.30;;;23.10;57.30;;;;;;5034691;28;20041;-67
2022/07/25 01:13:12;;;;;;;5.18;4.68;;;23.00;57.40;;;;;;5051497;28;20490;-63
2022/07/25 01:15:39;;;;;;;6.10;4.90;;;23.00;57.30;;;;;;5052396;28;20033;-68
2022/07/25 01:18:05;;;;;;;6.30;5.60;;;22.90;57.50;;;;;;5051469;28;20482;-64
2022/07/25 01:20:31;;;;;;;8.45;5.78;;;22.90;57.60;;;;;;5051584;28;20086;-64
2022/07/25 01:22:59;;;;;;;7.30;5.20;;;22.80;57.60;;;;;;5055152;28;20041;-64
2022/07/25 01:25:26;;;;;;;6.18;5.25;;;22.80;57.70;;;;;;5055223;28;20037;-64
2022/07/25 01:27:52;;;;;;;6.40;5.10;;;22.70;57.80;;;;;;5055362;28;20401;-64
2022/07/25 01:30:19;;;;;;;6.53;5.35;;;22.70;57.80;;;;;;5055091;28;20049;-64
2022/07/25 01:32:46;;;;;;;7.40;6.68;;;22.70;57.90;;;;;;5054987;28;20312;-64
2022/07/25 01:35:13;;;;;;;6.75;5.68;;;22.60;58.00;;;;;;5055222;28;20040;-68
2022/07/25 01:37:40;;;;;;;6.68;5.97;;;22.60;58.10;;;;;;5038318;28;20056;-64
2022/07/25 01:40:06;;;;;;;6.13;5.53;;;22.60;58.20;;;;;;5055199;28;20052;-65
2022/07/25 01:42:32;;;;;;;8.48;6.03;;;22.60;58.30;;;;;;5054828;28;20534;-67
2022/07/25 01:44:58;;;;;;;6.25;5.65;;;22.50;58.30;;;;;;5054930;28;20120;-69
2022/07/25 01:47:24;;;;;;;7.65;6.20;;;22.50;58.30;;;;;;5056134;28;20073;-68
2022/07/25 01:49:50;;;;;;;7.97;6.60;;;22.50;58.30;;;;;;5055030;28;20145;-68
2022/07/25 01:52:16;;;;;;;6.90;6.20;;;22.50;58.40;;;;;;5054945;28;20518;-64
2022/07/25 01:54:42;;;;;;;8.75;6.53;;;22.50;58.50;;;;;;5038344;28;20087;-64
2022/07/25 01:57:08;;;;;;;7.05;6.35;;;22.50;58.50;;;;;;5037937;28;20509;-64
2022/07/25 01:59:40;;;;;;;6.55;5.85;;;22.40;58.50;;;;;;5055990;28;20107;-64
2022/07/25 02:02:07;;;;;;;5.38;4.80;;;22.40;58.50;;;;;;5054774;28;20091;-64
2022/07/25 02:04:33;;;;;;;6.80;5.60;;;22.40;58.70;;;;;;5054267;28;20085;-68
2022/07/25 02:06:59;;;;;;;6.97;6.05;;;22.40;58.50;;;;;;5037777;28;20102;-67
2022/07/25 02:09:25;;;;;;;5.00;4.50;;;22.40;58.40;;;;;;5055626;28;20086;-68
2022/07/25 02:11:50;;;;;;;5.53;4.47;;;22.40;58.20;;;;;;5054361;28;20045;-68
2022/07/25 02:14:16;;;;;;;4.93;4.15;;;22.40;58.10;;;;;;5054298;28;20041;-64
2022/07/25 02:16:42;;;;;;;4.60;4.20;;;22.40;58.30;;;;;;5055435;28;20045;-64
2022/07/25 02:19:08;;;;;;;5.20;4.70;;;22.40;57.80;;;;;;5054221;28;20098;-68
2022/07/25 02:21:33;;;;;;;6.55;5.95;;;22.40;57.70;;;;;;5054308;28;20112;-68
2022/07/25 02:23:59;;;;;;;6.55;5.95;;;22.50;58.00;;;;;;5054125;28;20041;-68
2022/07/25 02:26:25;;;;;;;5.40;4.88;;;22.50;58.20;;;;;;5054337;28;20114;-64
2022/07/25 02:28:50;;;;;;;5.30;4.80;;;22.50;58.20;;;;;;5037479;28;20041;-64
2022/07/25 02:31:16;;;;;;;9.75;7.22;;;22.50;57.70;;;;;;5054242;28;20037;-68
2022/07/25 02:33:42;;;;;;;5.88;5.28;;;22.50;58.20;;;;;;5054390;28;20051;-64
2022/07/25 02:36:09;;;;;;;5.70;5.20;;;22.50;57.80;;;;;;5054980;28;20490;-69
2022/07/25 02:38:35;;;;;;;5.72;5.10;;;22.50;57.80;;;;;;5053773;28;20055;-64
2022/07/25 02:41:00;;;;;;;6.70;5.03;;;22.50;57.70;;;;;;5055212;28;20037;-64
2022/07/25 02:43:26;;;;;;;5.55;5.05;;;22.50;57.60;;;;;;5054986;28;20045;-65
2022/07/25 02:45:53;;;;;;;5.20;4.70;;;22.50;57.60;;;;;;5054039;28;20394;-69
2022/07/25 02:48:19;;;;;;;7.38;6.68;;;22.50;57.60;;;;;;5053614;28;20132;-69
2022/07/25 02:50:44;;;;;;;7.28;6.57;;;22.50;58.00;;;;;;5053826;28;20067;-65
2022/07/25 02:53:10;;;;;;;5.15;4.65;;;22.50;58.30;;;;;;5053453;28;20041;-65
2022/07/25 02:55:36;;;;;;;5.45;4.95;;;22.50;57.90;;;;;;5053490;28;20073;-68
2022/07/25 02:58:01;;;;;;;4.72;4.30;;;22.50;57.70;;;;;;5053446;28;20110;-64
2022/07/25 03:00:29;;;;;;;7.90;7.18;;;22.50;57.60;;;;;;5053387;28;20045;-67
2022/07/25 03:02:55;;;;;;;8.35;6.97;;;22.50;58.30;;;;;;5053375;28;20095;-66
2022/07/25 03:05:20;;;;;;;7.50;6.72;;;22.50;58.60;;;;;;5053365;28;20049;-64
2022/07/25 03:07:46;;;;;;;5.35;4.75;;;22.50;58.80;;;;;;5053553;28;20048;-63
2022/07/25 03:10:13;;;;;;;6.55;5.32;;;22.40;58.30;;;;;;5053469;28;20049;-64
2022/07/25 03:12:39;;;;;;;6.07;5.47;;;22.40;58.20;;;;;;5036560;28;20041;-63
2022/07/25 03:15:06;;;;;;;7.60;6.90;;;22.30;58.30;;;;;;5053203;28;20044;-63
2022/07/25 03:17:32;;;;;;;7.40;6.70;;;22.40;59.00;;;;;;5053073;28;20051;-64
2022/07/25 03:19:58;;;;;;;6.20;5.43;;;22.30;59.10;;;;;;5054296;28;20367;-67
2022/07/25 03:22:24;;;;;;;5.50;4.38;;;22.20;58.70;;;;;;5052964;28;20045;-68
2022/07/25 03:24:50;;;;;;;7.60;6.07;;;22.20;58.40;;;;;;5036283;28;20095;-63
2022/07/25 03:27:16;;;;;;;6.10;5.50;;;22.20;59.00;;;;;;5054203;28;20052;-64
2022/07/25 03:29:42;;;;;;;4.78;4.28;;;22.20;59.40;;;;;;5052838;28;20436;-64
2022/07/25 03:32:08;;;;;;;4.80;4.28;;;22.10;58.80;;;;;;5052796;28;20094;-64
2022/07/25 03:34:35;;;;;;;9.63;6.93;;;22.10;58.50;;;;;;5052733;28;20045;-64
2022/07/25 03:37:01;;;;;;;7.45;6.40;;;22.10;59.40;;;;;;5052536;28;20041;-63
2022/07/25 03:39:27;;;;;;;7.93;7.13;;;22.10;59.80;;;;;;5052623;28;20041;-64
2022/07/25 03:41:54;;;;;;;5.82;5.22;;;22.10;59.90;;;;;;5052614;28;20523;-63
2022/07/25 03:44:22;;;;;;;5.25;4.75;;;22.00;59.50;;;;;;5052737;28;20471;-63
2022/07/25 03:46:47;;;;;;;8.27;7.47;;;22.00;59.20;;;;;;5052749;28;20036;-63
2022/07/25 03:49:13;;;;;;;10.68;8.13;;;22.00;59.70;;;;;;5036072;28;20478;-68
2022/07/25 03:51:39;;;;;;;9.90;8.35;;;22.00;60.10;;;;;;5052472;28;20458;-67
2022/07/25 03:54:05;;;;;;;9.57;8.60;;;21.90;60.10;;;;;;5053704;28;20048;-63
2022/07/25 03:56:36;;;;;;;9.45;7.53;;;21.80;60.30;;;;;;5053568;28;20084;-63
2022/07/25 03:59:03;;;;;;;10.05;9.05;;;21.80;60.30;;;;;;5052334;28;20052;-64
2022/07/25 04:01:29;;;;;;;10.13;9.13;;;21.80;60.40;;;;;;5052470;28;20037;-63
2022/07/25 04:03:55;;;;;;;10.52;9.05;;;21.70;60.50;;;;;;5052039;28;20483;-64
2022/07/25 04:06:22;;;;;;;10.00;9.00;;;21.60;60.70;;;;;;5052020;28;20559;-64
2022/07/25 04:08:48;;;;;;;10.52;8.93;;;21.60;60.80;;;;;;5052198;28;20394;-67
2022/07/25 04:11:14;;;;;;;10.75;9.73;;;21.50;61.00;;;;;;5052103;28;20131;-67
2022/07/25 04:13:40;;;;;;;10.98;10.00;;;21.50;61.10;;;;;;5053325;28;20120;-67
2022/07/25 04:16:06;;;;;;;12.18;10.88;;;21.40;61.10;;;;;;5052206;28;20041;-67
2022/07/25 04:18:31;;;;;;;10.02;9.00;;;21.40;61.30;;;;;;5052156;28;20075;-68
2022/07/25 04:20:57;;;;;;;10.63;9.63;;;21.30;61.30;;;;;;5052199;28;20052;-68
2022/07/25 04:23:23;;;;;;;12.13;10.88;;;21.30;61.30;;;;;;5051879;28;20434;-64
2022/07/25 04:25:48;;;;;;;8.90;8.00;;;21.30;61.50;;;;;;5052021;28;20037;-64
2022/07/25 04:28:14;;;;;;;8.07;7.28;;;21.30;61.40;;;;;;5051933;28;20537;-63
2022/07/25 04:30:40;;;;;;;10.05;9.02;;;21.30;61.30;;;;;;5051769;28;20072;-63
2022/07/25 04:33:05;;;;;;;10.20;9.30;;;21.30;61.40;;;;;;5051985;28;20393;-66
2022/07/25 04:35:31;;;;;;;9.52;8.35;;;21.30;61.40;;;;;;5052858;28;20040;-63
2022/07/25 04:37:57;;;;;;;12.20;11.00;;;21.40;61.60;;;;;;5051555;28;20040;-63
2022/07/25 04:40:22;;;;;;;12.18;10.98;;;21.40;62.00;;;;;;5053001;28;20037;-67
2022/07/25 04:42:48;;;;;;;14.05;12.68;;;21.40;62.10;;;;;;5068293;28;20445;-68
2022/07/25 04:45:14;;;;;;;12.65;11.45;;;21.40;62.00;;;;;;5052832;28;20045;-67
2022/07/25 04:47:39;;;;;;;16.05;14.02;;;21.40;61.80;;;;;;5051404;28;20406;-67
2022/07/25 04:50:06;;;;;;;14.45;12.95;;;21.50;61.90;;;;;;5052808;28;20044;-68
2022/07/25 04:52:32;;;;;;;14.93;13.45;;;21.50;61.90;;;;;;5051779;28;20037;-68
2022/07/25 04:54:58;;;;;;;17.50;14.55;;;21.50;61.80;;;;;;5067969;28;20171;-67
2022/07/25 04:57:23;;;;;;;14.80;13.40;;;21.50;61.60;;;;;;5052396;28;20049;-67
2022/07/25 04:59:49;;;;;;;14.57;13.10;;;21.60;61.60;;;;;;5051445;28;20379;-64
2022/07/25 05:02:14;;;;;;;13.93;12.48;;;21.60;61.50;;;;;;5068311;28;20045;-64
2022/07/25 05:04:40;;;;;;;10.98;9.98;;;21.60;61.60;;;;;;5052382;28;20509;-64
2022/07/25 05:07:06;;;;;;;15.05;13.10;;;21.60;61.30;;;;;;5051625;28;20037;-64
2022/07/25 05:09:32;;;;;;;12.10;10.90;;;21.70;61.10;;;;;;5052548;28;20041;-64
2022/07/25 05:11:57;;;;;;;12.80;11.50;;;21.70;61.00;;;;;;5051488;28;20041;-69
2022/07/25 05:14:23;;;;;;;14.35;12.95;;;21.80;61.60;;;;;;5052544;28;20072;-68
2022/07/25 05:16:49;;;;;;;12.32;11.13;;;21.80;61.10;;;;;;5034606;28;20052;-63
2022/07/25 05:19:15;;;;;;;13.73;12.32;;;21.80;60.90;;;;;;5051495;28;20049;-64
2022/07/25 05:21:40;;;;;;;10.85;9.75;;;21.90;60.80;;;;;;5051248;28;20505;-64
2022/07/25 05:24:06;;;;;;;12.70;11.40;;;21.90;60.60;;;;;;5051196;28;20041;-64
2022/07/25 05:26:32;;;;;;;14.13;12.63;;;22.00;60.60;;;;;;5051402;28;20044;-64
2022/07/25 05:28:58;;;;;;;13.05;11.65;;;22.00;60.80;;;;;;5051104;28;20037;-64
2022/07/25 05:31:23;;;;;;;13.80;12.38;;;22.10;60.80;;;;;;5034495;28;20052;-64
2022/07/25 05:33:49;;;;;;;13.23;11.93;;;22.10;60.90;;;;;;5051353;28;20045;-64
2022/07/25 05:36:15;;;;;;;14.00;12.70;;;22.10;60.80;;;;;;5051085;28;20068;-64
2022/07/25 05:38:41;;;;;;;13.82;12.52;;;22.20;60.90;;;;;;5052421;28;20076;-64
2022/07/25 05:41:07;;;;;;;18.52;15.40;;;22.20;61.00;;;;;;5052161;28;20073;-64
2022/07/25 05:43:32;;;;;;;15.02;13.50;;;22.30;61.00;;;;;;5052294;28;20041;-65
2022/07/25 05:46:03;;;;;;;14.18;12.77;;;22.30;61.00;;;;;;5051040;28;20130;-68
2022/07/25 05:48:29;;;;;;;14.43;12.88;;;22.30;60.90;;;;;;5050811;28;20048;-68
2022/07/25 05:50:55;;;;;;;13.00;11.70;;;22.40;61.10;;;;;;5051169;28;20033;-63
2022/07/25 05:53:21;;;;;;;12.77;11.57;;;22.50;61.20;;;;;;5050865;28;20049;-68
2022/07/25 05:55:46;;;;;;;13.80;12.43;;;22.60;61.20;;;;;;5052114;28;20367;-63
2022/07/25 05:58:12;;;;;;;12.88;11.68;;;22.60;61.10;;;;;;5050777;28;20398;-68
2022/07/25 06:00:38;;;;;;;12.57;10.70;;;22.70;61.20;;;;;;5050768;28;20067;-67
2022/07/25 06:03:04;;;;;;;10.50;9.50;;;22.80;60.90;;;;;;5051786;28;20043;-67
2022/07/25 06:05:30;;;;;;;9.43;8.43;;;22.80;60.90;;;;;;5050792;28;20153;-68
2022/07/25 06:07:56;;;;;;;11.32;10.23;;;22.90;60.00;;;;;;5052156;28;20128;-67
2022/07/25 06:10:22;;;;;;;10.15;9.23;;;23.00;59.80;;;;;;5054474;28;20498;-68
2022/07/25 06:12:48;;;;;;;10.93;9.75;;;23.10;59.40;;;;;;5055703;28;20033;-68
2022/07/25 06:15:14;;;;;;;11.25;10.13;;;23.10;59.20;;;;;;5054257;28;20406;-67
2022/07/25 06:17:40;;;;;;;11.00;9.65;;;23.20;59.00;;;;;;5054191;28;20033;-67
2022/07/25 06:20:06;;;;;;;11.98;10.77;;;23.30;59.00;;;;;;5054264;28;20037;-67
2022/07/25 06:22:31;;;;;;;10.35;9.27;;;23.30;59.00;;;;;;5054393;28;20518;-67
2022/07/25 06:24:57;;;;;;;11.32;10.18;;;23.40;59.10;;;;;;5054388;28;20141;-67
2022/07/25 06:27:22;;;;;;;11.95;10.75;;;23.60;59.00;;;;;;5054161;28;20505;-67
2022/07/25 06:29:48;;;;;;;11.77;10.02;;;23.80;58.70;;;;;;5054328;28;20505;-67
2022/07/25 06:32:14;;;;;;;11.30;10.15;;;24.00;58.40;;;;;;5054031;28;20048;-66
2022/07/25 06:34:40;;;;;;;10.57;9.52;;;24.20;58.30;;;;;;5053949;28;20036;-68
2022/07/25 06:37:05;;;;;;;11.63;10.10;;;24.40;58.20;;;;;;5053853;28;20124;-67
2022/07/25 06:39:31;;;;;;;10.45;9.00;;;24.80;58.00;;;;;;5053755;28;20087;-67
2022/07/25 06:41:58;;;;;;;10.68;9.52;;;25.10;57.30;;;;;;5053842;28;20029;-67
2022/07/25 06:44:25;;;;;;;10.20;9.20;;;25.60;57.20;;;;;;5053724;28;20049;-67
2022/07/25 06:46:50;;;;;;;9.77;8.88;;;25.80;56.30;;;;;;5053951;28;20386;-64
2022/07/25 06:49:16;;;;;;;9.88;8.93;;;26.00;55.80;;;;;;5053586;28;20041;-64
2022/07/25 06:51:42;;;;;;;11.73;10.63;;;26.20;55.50;;;;;;5053527;28;20048;-67
2022/07/25 06:54:08;;;;;;;9.90;8.90;;;26.30;55.50;;;;;;5053538;28;20045;-67
2022/07/25 06:56:34;;;;;;;8.88;8.07;;;26.40;54.80;;;;;;5053380;28;20056;-64
2022/07/25 06:58:59;;;;;;;8.20;7.40;;;26.40;54.50;;;;;;5053591;28;20040;-64
2022/07/25 07:01:26;;;;;;;8.43;7.63;;;26.50;53.90;;;;;;5053453;28;20505;-64
2022/07/25 07:03:51;;;;;;;8.82;7.78;;;26.60;53.70;;;;;;5053260;28;20060;-69
2022/07/25 07:06:17;;;;;;;9.02;8.13;;;26.60;53.60;;;;;;5053334;28;20045;-67
2022/07/25 07:08:43;;;;;;;8.90;8.00;;;26.60;53.70;;;;;;5053542;28;20053;-67
2022/07/25 07:11:08;;;;;;;12.13;10.27;;;26.60;53.70;;;;;;5054954;28;20044;-67
2022/07/25 07:13:34;;;;;;;10.13;9.02;;;26.60;53.70;;;;;;5054316;28;20398;-64
2022/07/25 07:16:00;;;;;;;11.43;10.25;;;26.60;54.10;;;;;;5053080;28;20033;-64
2022/07/25 07:18:25;;;;;;;10.60;9.50;;;26.60;54.00;;;;;;5052951;28;20048;-67
2022/07/25 07:20:51;;;;;;;11.25;10.05;;;26.60;54.00;;;;;;5053015;28;20552;-65
2022/07/25 07:23:17;;;;;;;10.90;9.88;;;26.60;54.20;;;;;;5052939;28;20036;-63
2022/07/25 07:25:45;;;;;;;9.98;9.10;;;26.60;54.00;;;;;;5052992;28;20037;-65
2022/07/25 07:28:11;;;;;;;10.20;8.93;;;26.70;54.10;;;;;;5054191;28;20486;-64
2022/07/25 07:30:37;;;;;;;9.23;8.27;;;26.80;53.90;;;;;;5054134;28;20075;-64
2022/07/25 07:33:03;;;;;;;9.35;8.45;;;26.90;54.00;;;;;;5053147;28;20091;-64
2022/07/25 07:35:29;;;;;;;9.77;8.10;;;27.10;53.90;;;;;;5054199;28;20044;-64
2022/07/25 07:37:55;;;;;;;8.10;7.30;;;27.30;53.70;;;;;;5052744;28;20455;-64
2022/07/25 07:40:22;;;;;;;8.77;7.97;;;27.50;53.00;;;;;;5052617;28;20044;-64
2022/07/25 07:42:49;;;;;;;8.90;8.00;;;27.60;52.80;;;;;;5052602;28;20060;-64
2022/07/25 07:45:23;;;;;;;6.95;6.15;;;27.70;52.80;;;;;;5052863;28;20053;-64
2022/07/25 07:47:50;;;;;;;7.00;6.30;;;27.80;52.40;;;;;;5052748;28;20068;-64
2022/07/25 07:50:18;;;;;;;8.05;5.55;;;27.80;52.60;;;;;;5052477;28;20091;-67
2022/07/25 07:52:45;;;;;;;5.97;5.38;;;27.90;52.40;;;;;;5052428;28;20040;-69
2022/07/25 07:57:55;;;;;;;6.65;5.90;;;27.90;51.80;;;;;;5052320;28;20052;-68
2022/07/25 08:00:22;;;;;;;5.75;4.75;;;27.90;51.40;;;;;;5052312;28;20398;-68
2022/07/25 08:02:51;;;;;;;7.18;4.85;;;27.90;51.20;;;;;;5052514;28;20040;-68
2022/07/25 08:05:27;;;;;;;5.90;5.00;;;27.90;51.30;;;;;;5052040;28;20056;-68
2022/07/25 08:07:53;;;;;;;5.68;5.05;;;27.90;51.20;;;;;;5052405;28;20500;-68
2022/07/25 08:10:25;;;;;;;6.88;5.00;;;27.90;51.40;;;;;;5052122;28;20215;-64
2022/07/25 08:12:51;;;;;;;5.30;4.75;;;27.90;51.80;;;;;;5053486;28;20075;-64
2022/07/25 08:15:18;;;;;;;5.38;4.82;;;27.80;51.90;;;;;;5052030;28;20052;-64
2022/07/25 08:17:45;;;;;;;5.25;4.40;;;27.80;52.50;;;;;;5035313;28;20049;-64
2022/07/25 08:20:12;;;;;;;6.05;4.70;;;27.80;52.30;;;;;;5053070;28;20036;-64
2022/07/25 08:22:40;;;;;;;5.30;4.80;;;27.80;52.10;;;;;;5051851;28;20120;-67
2022/07/25 08:25:08;;;;;;;5.28;4.50;;;27.80;52.20;;;;;;5053213;28;20049;-68
2022/07/25 08:27:35;;;;;;;5.28;4.00;;;27.80;51.90;;;;;;5051853;28;20044;-68
2022/07/25 08:30:01;;;;;;;3.78;3.38;;;27.80;51.00;;;;;;5052607;28;20037;-64
2022/07/25 08:32:27;;;;;;;4.07;2.67;;;27.80;50.70;;;;;;5052914;28;20392;-63
2022/07/25 08:34:53;;;;;;;5.13;3.38;;;27.70;49.90;;;;;;5052835;28;20129;-64
2022/07/25 08:37:19;;;;;;;3.70;2.60;;;27.60;50.00;;;;;;5051661;28;20445;-63
2022/07/25 08:39:45;;;;;;;3.70;2.85;;;27.60;50.30;;;;;;5034944;28;20044;-64
2022/07/25 08:42:11;;;;;;;2.40;2.10;;;27.60;50.40;;;;;;5052866;28;20469;-64
2022/07/25 08:44:41;;;;;;;2.38;2.08;;;27.50;50.10;;;;;;5051510;28;20055;-64
2022/07/25 08:47:09;;;;;;;3.22;2.30;;;27.40;50.10;;;;;;5051330;28;20045;-67
2022/07/25 08:49:35;;;;;;;2.75;2.10;;;27.40;50.20;;;;;;5051728;28;20060;-64
2022/07/25 08:52:02;;;;;;;3.10;1.80;;;27.30;50.30;;;;;;5051724;28;20497;-69
2022/07/25 08:54:30;;;;;;;3.22;2.17;;;27.30;50.80;;;;;;5052713;28;20120;-68
2022/07/25 08:56:56;;;;;;;5.45;2.20;;;27.20;50.70;;;;;;5051459;28;20044;-68
2022/07/25 08:59:21;;;;;;;3.70;2.08;;;27.20;50.30;;;;;;5051638;28;20052;-67
2022/07/25 09:01:47;;;;;;;4.10;2.00;;;27.10;50.30;;;;;;5052695;28;20084;-68
2022/07/25 09:04:13;;;;;;;3.75;2.00;;;27.10;50.20;;;;;;5051269;28;20049;-68
2022/07/25 09:06:49;;;;;;;3.60;2.22;;;27.10;50.20;;;;;;5051542;28;20045;-68
2022/07/25 09:09:15;;;;;;;3.42;1.88;;;27.00;50.30;;;;;;5052451;28;20050;-69
2022/07/25 09:11:40;;;;;;;3.60;1.95;;;27.10;50.70;;;;;;5051403;28;20067;-68
2022/07/25 09:14:09;;;;;;;2.88;1.80;;;27.10;50.60;;;;;;5052696;28;20134;-69
2022/07/25 09:16:42;;;;;;;3.58;1.73;;;27.20;50.70;;;;;;5052520;28;20045;-69
2022/07/25 09:19:10;;;;;;;2.38;1.70;;;27.20;50.20;;;;;;5051120;28;20052;-68
2022/07/25 09:21:38;;;;;;;3.13;1.65;;;27.30;49.60;;;;;;5034579;28;20122;-68
2022/07/25 09:24:17;;;;;;;3.05;1.77;;;27.40;49.90;;;;;;5034974;28;20037;-68
2022/07/25 09:26:48;;;;;;;4.70;2.15;;;27.40;49.80;;;;;;5051286;28;20045;-67
2022/07/25 09:29:16;;;;;;;4.03;1.65;;;27.60;50.30;;;;;;5051077;28;20052;-67
2022/07/25 09:31:42;;;;;;;3.28;1.45;;;27.70;50.30;;;;;;5051030;28;20124;-68
2022/07/25 09:34:08;;;;;;;4.28;1.23;;;27.80;50.00;;;;;;5034558;28;20116;-68
2022/07/25 09:36:38;;;;;;;2.63;1.20;;;27.80;49.60;;;;;;5051121;28;20060;-68
2022/07/25 09:39:05;;;;;;;1.92;1.10;;;27.90;49.50;;;;;;5052309;28;20041;-68
2022/07/25 09:41:39;;;;;;;2.15;0.90;;;28.00;49.60;;;;;;5051531;28;20045;-68
2022/07/25 09:44:34;;;;;;;3.88;1.10;;;28.00;49.40;;;;;;5055154;28;20081;-68
2022/07/25 09:47:12;;;;;;;2.72;0.95;;;28.10;49.50;;;;;;5029568;28;20049;-68
2022/07/25 09:49:40;;;;;;;2.20;0.90;;;28.10;49.50;;;;;;5055017;28;20044;-68
2022/07/25 09:52:06;;;;;;;2.22;0.98;;;28.10;49.60;;;;;;5056042;28;20077;-68
2022/07/25 09:54:33;;;;;;;3.20;0.82;;;28.10;49.70;;;;;;5055950;28;20076;-68
2022/07/25 09:56:59;;;;;;;3.47;1.08;;;28.20;49.80;;;;;;5056043;28;20056;-68
2022/07/25 09:59:25;;;;;;;3.05;1.10;;;28.20;50.70;;;;;;5054682;28;20037;-68
2022/07/25 10:02:20;;;;;;;3.50;1.13;;;28.30;50.90;;;;;;5055969;28;20037;-68
2022/07/25 10:04:58;;;;;;;3.75;1.10;;;28.30;51.20;;;;;;5054141;28;20045;-68
2022/07/25 10:07:25;;;;;;;2.72;1.00;;;28.40;51.50;;;;;;5054473;28;20106;-68
2022/07/25 10:09:54;;;;;;;2.90;1.02;;;28.30;51.40;;;;;;5054511;28;20067;-68
2022/07/25 10:12:22;;;;;;;3.60;1.55;;;28.40;51.60;;;;;;5054638;28;20044;-68
2022/07/25 10:15:04;;;;;;;3.70;1.20;;;28.40;51.60;;;;;;5054528;28;20094;-67
2022/07/25 10:17:31;;;;;;;4.43;1.40;;;28.40;51.50;;;;;;5054220;28;20465;-67
2022/07/25 10:19:59;;;;;;;4.55;1.30;;;28.30;51.30;;;;;;5054231;28;20048;-67
2022/07/25 10:22:43;;;;;;;4.85;1.38;;;28.30;51.40;;;;;;5054336;28;20052;-68
2022/07/25 10:25:14;;;;;;;5.78;1.65;;;28.30;51.50;;;;;;5054246;28;20033;-67
2022/07/25 10:27:47;;;;;;;6.10;1.60;;;28.30;51.70;;;;;;5054147;28;20132;-67
2022/07/25 10:30:22;;;;;;;3.30;1.45;;;28.20;51.50;;;;;;5054013;28;20059;-68
2022/07/25 10:33:03;;;;;;;4.45;1.60;;;28.10;51.40;;;;;;5054283;28;20048;-67
2022/07/25 10:35:30;;;;;;;4.70;1.80;;;28.10;52.00;;;;;;5053978;28;20063;-68
2022/07/25 10:37:57;;;;;;;4.60;1.92;;;28.00;52.40;;;;;;5055315;28;20041;-67
2022/07/25 10:40:33;;;;;;;5.00;2.00;;;27.90;52.40;;;;;;5053918;28;20037;-67
2022/07/25 10:43:24;;;;;;;5.10;1.75;;;27.90;52.60;;;;;;5053691;28;20048;-67
2022/07/25 10:45:56;;;;;;;6.80;2.53;;;27.80;52.50;;;;;;5052295;28;20114;-67
2022/07/25 10:48:28;;;;;;;3.85;1.63;;;27.70;53.20;;;;;;5053650;28;20107;-67
2022/07/25 10:51:02;;;;;;;3.40;1.42;;;27.70;53.20;;;;;;5053665;28;20525;-67
2022/07/25 10:53:46;;;;;;;5.15;1.90;;;27.60;52.90;;;;;;5054244;28;20041;-67
2022/07/25 10:56:16;;;;;;;;;;;27.60;53.00;;;;;;5055250;28;20045;-68
2022/07/25 10:58:51;;;;;;;7.32;2.30;;;27.60;52.80;;;;;;5054957;28;20270;-68
2022/07/25 11:01:23;;;;;;;5.03;1.90;;;27.60;53.00;;;;;;5053497;28;20119;-67
2022/07/25 11:03:50;;;;;;;6.53;2.00;;;27.60;52.90;;;;;;5053317;28;20048;-67
2022/07/25 11:06:28;;;;;;;5.70;2.28;;;27.60;52.60;;;;;;5053635;28;20040;-67
2022/07/25 11:08:56;;;;;;;8.02;2.17;;;27.50;52.30;;;;;;5053207;28;20487;-67
2022/07/25 11:11:36;;;;;;;5.60;2.35;;;27.50;52.20;;;;;;5053325;28;20056;-67
2022/07/25 11:14:03;;;;;;;6.25;2.45;;;27.40;52.00;;;;;;5053255;28;20521;-67
2022/07/25 11:16:29;;;;;;;6.28;1.95;;;27.40;52.00;;;;;;5054514;28;20041;-67
2022/07/25 11:18:55;;;;;;;6.90;2.90;;;27.40;52.00;;;;;;5053186;28;20037;-63
2022/07/25 11:21:20;;;;;;;5.03;2.22;;;27.40;52.10;;;;;;5054290;28;20037;-63
2022/07/25 11:23:51;;;;;;;4.97;2.13;;;27.30;52.10;;;;;;5053344;28;20033;-63
2022/07/25 11:26:17;;;;;;;7.13;2.95;;;27.30;51.90;;;;;;5054414;28;20068;-63
2022/07/25 11:28:48;;;;;;;7.32;1.83;;;27.30;51.90;;;;;;5054330;28;20048;-63
2022/07/25 11:31:15;;;;;;;6.90;2.30;;;27.30;51.60;;;;;;5052849;28;20145;-63
2022/07/25 11:33:44;;;;;;;3.25;1.58;;;27.30;51.60;;;;;;5052991;28;20126;-63
2022/07/25 11:36:10;;;;;;;5.15;2.10;;;27.30;51.50;;;;;;5052529;28;20048;-63
2022/07/25 11:38:38;;;;;;;7.63;2.08;;;27.20;51.60;;;;;;5052746;28;20077;-63
2022/07/25 11:41:04;;;;;;;5.28;1.80;;;27.20;51.70;;;;;;5053851;28;20451;-64
2022/07/25 11:43:30;;;;;;;5.80;1.92;;;27.10;51.70;;;;;;5053760;28;20124;-64
2022/07/25 11:46:05;;;;;;;4.35;1.60;;;27.10;51.40;;;;;;5052618;28;20036;-64
2022/07/25 11:48:37;;;;;;;4.13;1.45;;;27.10;51.10;;;;;;5052399;28;20044;-64
2022/07/25 11:51:18;;;;;;;2.65;1.00;;;27.10;51.00;;;;;;5052471;28;20049;-64
2022/07/25 11:53:46;;;;;;;6.72;1.60;;;27.10;51.20;;;;;;5053838;28;20048;-64
2022/07/25 11:56:19;;;;;;;5.40;1.75;;;27.10;50.80;;;;;;5053554;28;20033;-64
2022/07/25 11:58:58;;;;;;;4.83;1.80;;;27.10;50.50;;;;;;5052355;28;20041;-64
2022/07/25 12:01:32;;;;;;;3.95;1.30;;;27.10;50.50;;;;;;5053743;28;20279;-64
2022/07/25 12:04:17;;;;;;;4.25;1.55;;;27.10;50.20;;;;;;5052334;28;20375;-64
2022/07/25 12:06:46;;;;;;;4.35;1.65;;;27.20;50.50;;;;;;5034666;28;20053;-64
2022/07/25 12:09:17;;;;;;;3.28;1.50;;;27.20;50.60;;;;;;5052370;28;20072;-63
2022/07/25 12:11:43;;;;;;;5.22;1.60;;;27.20;50.70;;;;;;5053440;28;20036;-69
2022/07/25 12:14:09;;;;;;;7.38;1.90;;;27.20;50.20;;;;;;5052160;28;20077;-69
2022/07/25 12:16:36;;;;;;;5.85;1.75;;;27.20;49.70;;;;;;5053312;28;20095;-68
2022/07/25 12:19:02;;;;;;;4.68;1.52;;;27.20;49.60;;;;;;5053512;28;20044;-68
2022/07/25 12:21:28;;;;;;;4.05;1.45;;;27.30;49.50;;;;;;5053182;28;20048;-68
2022/07/25 12:23:54;;;;;;;5.68;1.52;;;27.30;49.20;;;;;;5052096;28;20053;-68
2022/07/25 12:26:19;;;;;;;5.40;2.15;;;27.40;49.10;;;;;;5051919;28;20083;-68
2022/07/25 12:28:45;;;;;;;4.25;1.45;;;27.40;49.10;;;;;;5053247;28;20375;-68
2022/07/25 12:31:11;;;;;;;4.72;1.65;;;27.40;48.80;;;;;;5052147;28;20068;-68
2022/07/25 12:33:37;;;;;;;6.15;1.77;;;27.50;48.60;;;;;;5051939;28;20474;-68
2022/07/25 12:36:03;;;;;;;4.60;1.80;;;27.50;48.20;;;;;;5052974;28;20051;-68
2022/07/25 12:38:29;;;;;;;5.15;2.08;;;27.60;48.30;;;;;;5051655;28;20124;-68
2022/07/25 12:40:55;;;;;;;6.00;1.70;;;27.60;48.30;;;;;;5051609;28;20124;-68
2022/07/25 12:43:21;;;;;;;5.80;1.65;;;27.60;48.50;;;;;;5053078;28;20041;-68
2022/07/25 12:45:47;;;;;;;5.72;1.80;;;27.60;48.10;;;;;;5051744;28;20033;-67